createdAt,value
2023-04-29T00:01:20.008Z,9.30
2023-04-29T00:03:47.653Z,7.77
2023-04-29T00:06:16.011Z,13.83
2023-04-29T00:08:44.216Z,8.23
2023-04-29T00:11:12.695Z,8.57
2023-04-29T00:13:42.027Z,9.17
2023-04-29T00:16:12.829Z,10.77
2023-04-29T00:18:41.231Z,10.37
2023-04-29T00:21:08.747Z,8.70
2023-04-29T00:23:39.759Z,9.53
2023-04-29T00:26:08.050Z,8.90
2023-04-29T00:28:36.199Z,7.13
2023-04-29T00:31:03.827Z,8.87
2023-04-29T00:33:35.572Z,7.33
2023-04-29T00:36:03.420Z,9.17
2023-04-29T00:38:31.283Z,8.10
2023-04-29T00:41:03.676Z,12.60
2023-04-29T00:43:31.468Z,13.83
2023-04-29T00:46:04.901Z,16.03
2023-04-29T00:48:33.203Z,9.93
2023-04-29T00:51:02.063Z,8.60
2023-04-29T00:53:29.523Z,9.00
2023-04-29T00:55:57.347Z,10.97
2023-04-29T00:58:33.637Z,8.70
2023-04-29T01:01:01.497Z,9.95
2023-04-29T01:03:33.022Z,9.73
2023-04-29T01:06:31.980Z,10.73
2023-04-29T01:09:11.643Z,10.97
2023-04-29T01:11:43.076Z,12.30
2023-04-29T01:14:10.888Z,10.00
2023-04-29T01:16:53.822Z,12.10
2023-04-29T01:19:47.501Z,12.83
2023-04-29T01:22:14.749Z,12.43
2023-04-29T01:24:43.066Z,11.90
2023-04-29T01:27:51.157Z,15.03
2023-04-29T01:30:18.643Z,12.27
2023-04-29T01:33:28.725Z,14.87
2023-04-29T01:36:14.044Z,14.70
2023-04-29T01:38:58.932Z,17.43
2023-04-29T01:41:34.632Z,13.93
2023-04-29T01:44:02.530Z,12.10
2023-04-29T01:46:30.391Z,10.73
2023-04-29T01:48:58.177Z,14.97
2023-04-29T01:51:25.975Z,14.33
2023-04-29T01:53:57.029Z,16.27
2023-04-29T01:56:24.717Z,14.47
2023-04-29T01:58:52.582Z,15.47
2023-04-29T02:01:20.494Z,12.37
2023-04-29T02:03:48.446Z,15.43
2023-04-29T02:06:17.016Z,13.17
2023-04-29T02:08:45.506Z,18.03
2023-04-29T02:11:13.438Z,16.87
2023-04-29T02:13:41.361Z,15.03
2023-04-29T02:16:32.289Z,14.30
2023-04-29T02:19:00.147Z,13.33
2023-04-29T02:21:27.653Z,13.93
2023-04-29T02:23:55.210Z,14.60
2023-04-29T02:26:23.705Z,12.80
2023-04-29T02:28:52.692Z,18.00
2023-04-29T02:31:20.311Z,17.80
2023-04-29T02:33:51.895Z,14.77
2023-04-29T02:36:42.515Z,13.13
2023-04-29T02:39:10.181Z,13.60
2023-04-29T02:41:38.051Z,13.37
2023-04-29T02:44:06.044Z,14.80
2023-04-29T02:46:35.653Z,16.33
2023-04-29T02:49:04.027Z,12.87
2023-04-29T02:51:37.267Z,14.23
2023-04-29T02:54:05.275Z,14.40
2023-04-29T02:56:32.699Z,13.53
2023-04-29T02:59:06.361Z,14.27
2023-04-29T03:01:34.372Z,14.50
2023-04-29T03:04:02.593Z,14.17
2023-04-29T03:06:30.641Z,14.87
2023-04-29T03:08:58.784Z,14.33
2023-04-29T03:11:26.687Z,15.03
2023-04-29T03:13:54.388Z,14.73
2023-04-29T03:16:22.192Z,17.87
2023-04-29T03:18:49.884Z,17.30
2023-04-29T03:21:17.801Z,19.50
2023-04-29T03:23:45.444Z,17.73
2023-04-29T03:26:13.469Z,15.47
2023-04-29T03:28:41.581Z,20.13
2023-04-29T03:31:11.742Z,16.37
2023-04-29T03:33:39.224Z,109.53
2023-04-29T03:36:09.454Z,79.17
2023-04-29T03:38:37.172Z,55.53
2023-04-29T03:41:05.145Z,24.30
2023-04-29T03:43:32.732Z,21.20
2023-04-29T03:46:00.651Z,19.23
2023-04-29T03:48:28.430Z,17.03
2023-04-29T03:50:56.352Z,15.63
2023-04-29T03:53:24.125Z,21.83
2023-04-29T03:55:51.619Z,21.23
2023-04-29T03:58:19.689Z,21.47
2023-04-29T04:00:47.524Z,15.93
2023-04-29T04:03:15.182Z,13.00
2023-04-29T04:05:42.748Z,15.03
2023-04-29T04:08:14.526Z,18.63
2023-04-29T04:10:42.344Z,21.67
2023-04-29T04:13:10.466Z,14.17
2023-04-29T04:15:38.376Z,14.80
2023-04-29T04:18:06.589Z,14.97
2023-04-29T04:20:34.469Z,14.30
2023-04-29T04:23:02.609Z,12.37
2023-04-29T04:25:30.402Z,15.00
2023-04-29T04:27:58.336Z,13.87
2023-04-29T04:30:26.187Z,14.93
2023-04-29T04:32:54.802Z,15.57
2023-04-29T04:35:22.809Z,14.90
2023-04-29T04:37:50.759Z,19.90
2023-04-29T04:40:41.190Z,15.57
2023-04-29T04:43:09.161Z,14.93
2023-04-29T04:45:37.359Z,18.57
2023-04-29T04:48:20.220Z,17.97
2023-04-29T04:50:47.679Z,13.47
2023-04-29T04:53:15.645Z,15.63
2023-04-29T04:55:43.473Z,18.73
2023-04-29T04:58:11.429Z,15.50
2023-04-29T05:00:39.266Z,13.40
2023-04-29T05:03:07.238Z,17.77
2023-04-29T05:05:35.251Z,17.03
2023-04-29T05:08:03.122Z,16.70
2023-04-29T05:10:30.779Z,15.57
2023-04-29T05:12:58.926Z,15.70
2023-04-29T05:15:27.439Z,15.77
2023-04-29T05:17:55.091Z,13.40
2023-04-29T05:20:28.252Z,13.93
2023-04-29T05:22:56.070Z,15.03
2023-04-29T05:25:23.793Z,16.27
2023-04-29T05:27:55.650Z,14.40
2023-04-29T05:30:23.900Z,20.37
2023-04-29T05:32:51.779Z,17.43
2023-04-29T05:35:19.464Z,15.07
2023-04-29T05:37:47.373Z,16.57
2023-04-29T05:40:15.310Z,14.50
2023-04-29T05:42:43.696Z,13.97
2023-04-29T05:45:20.085Z,15.37
2023-04-29T05:47:59.531Z,13.43
2023-04-29T05:50:27.523Z,12.63
2023-04-29T05:52:56.502Z,18.90
2023-04-29T05:55:26.922Z,17.20
2023-04-29T05:57:55.165Z,13.70
2023-04-29T06:00:31.960Z,14.33
2023-04-29T06:05:27.794Z,16.27
2023-04-29T06:07:55.421Z,15.97
2023-04-29T06:10:23.311Z,16.17
2023-04-29T06:12:51.910Z,15.67
2023-04-29T06:15:19.728Z,13.60
2023-04-29T06:17:47.554Z,14.30
2023-04-29T06:20:17.148Z,13.83
2023-04-29T06:22:46.225Z,14.67
2023-04-29T06:25:14.296Z,13.30
2023-04-29T06:27:42.383Z,15.17
2023-04-29T06:30:13.300Z,13.80
2023-04-29T06:32:40.999Z,13.30
2023-04-29T06:35:08.912Z,14.43
2023-04-29T06:37:37.986Z,12.03
2023-04-29T06:40:10.027Z,12.17
2023-04-29T06:42:37.836Z,17.77
2023-04-29T06:45:08.179Z,19.13
2023-04-29T06:47:36.330Z,12.83
2023-04-29T06:50:05.289Z,13.90
2023-04-29T06:52:33.515Z,16.27
2023-04-29T06:55:00.922Z,16.23
2023-04-29T06:57:28.676Z,17.50
2023-04-29T06:59:56.613Z,12.63
2023-04-29T07:02:24.744Z,14.87
2023-04-29T07:04:52.873Z,18.10
2023-04-29T07:07:20.750Z,12.20
2023-04-29T07:09:52.092Z,13.30
2023-04-29T07:12:20.122Z,15.57
2023-04-29T07:14:48.027Z,12.07
2023-04-29T07:17:16.137Z,15.47
2023-04-29T07:19:43.778Z,12.03
2023-04-29T07:22:11.601Z,13.00
2023-04-29T07:24:43.000Z,13.27
2023-04-29T07:27:11.340Z,15.60
2023-04-29T07:29:38.851Z,15.10
2023-04-29T07:32:06.925Z,10.27
2023-04-29T07:34:34.783Z,16.97
2023-04-29T07:37:02.768Z,16.90
2023-04-29T07:39:30.802Z,16.27
2023-04-29T07:42:00.338Z,12.00
2023-04-29T07:44:28.190Z,15.43
2023-04-29T07:46:55.687Z,13.37
2023-04-29T07:49:23.157Z,12.97
2023-04-29T07:51:53.984Z,13.80
2023-04-29T07:54:22.356Z,12.47
2023-04-29T07:56:50.711Z,23.23
2023-04-29T07:59:18.647Z,13.47
2023-04-29T08:01:46.072Z,19.87
2023-04-29T08:04:13.990Z,14.37
2023-04-29T08:06:44.612Z,13.73
2023-04-29T08:09:32.360Z,15.57
2023-04-29T08:12:00.203Z,15.83
2023-04-29T08:14:27.800Z,13.60
2023-04-29T08:16:55.805Z,15.60
2023-04-29T08:19:23.738Z,14.13
2023-04-29T08:21:51.891Z,10.20
2023-04-29T08:24:20.660Z,11.33
2023-04-29T08:26:48.400Z,15.90
2023-04-29T08:29:16.301Z,13.07
2023-04-29T08:31:44.445Z,16.70
2023-04-29T08:34:12.763Z,13.40
2023-04-29T08:36:40.571Z,10.87
2023-04-29T08:39:08.050Z,10.77
2023-04-29T08:41:35.541Z,10.73
2023-04-29T08:44:05.088Z,11.53
2023-04-29T08:46:32.963Z,9.57
2023-04-29T08:49:00.935Z,12.97
2023-04-29T08:51:29.044Z,12.73
2023-04-29T08:53:57.409Z,9.90
2023-04-29T08:56:25.735Z,10.47
2023-04-29T08:58:54.834Z,15.63
2023-04-29T09:01:37.249Z,10.53
2023-04-29T09:04:27.073Z,11.97
2023-04-29T09:06:57.624Z,11.20
2023-04-29T09:09:27.966Z,12.27
2023-04-29T09:11:56.609Z,11.17
2023-04-29T09:14:24.474Z,10.33
2023-04-29T09:16:52.005Z,10.87
2023-04-29T09:19:49.063Z,7.83
2023-04-29T09:22:16.474Z,10.88
2023-04-29T09:24:45.685Z,10.43
2023-04-29T09:27:13.048Z,10.23
2023-04-29T09:29:41.898Z,8.57
2023-04-29T09:32:23.487Z,9.17
2023-04-29T09:34:53.220Z,7.30
2023-04-29T09:37:29.255Z,6.47
2023-04-29T09:39:56.749Z,8.33
2023-04-29T09:42:24.484Z,6.57
2023-04-29T09:44:55.437Z,9.37
2023-04-29T09:47:35.689Z,9.07
2023-04-29T09:50:22.317Z,9.57
2023-04-29T09:52:50.760Z,11.27
2023-04-29T09:55:18.808Z,12.67
2023-04-29T09:57:46.651Z,9.10
2023-04-29T10:00:17.744Z,11.63
2023-04-29T10:02:51.054Z,9.27
2023-04-29T10:05:19.268Z,8.47
2023-04-29T10:07:50.276Z,9.93
2023-04-29T10:10:17.892Z,10.40
2023-04-29T10:12:44.961Z,8.27
2023-04-29T10:15:29.025Z,9.30
2023-04-29T10:18:03.835Z,8.67
2023-04-29T10:20:30.980Z,9.13
2023-04-29T10:22:59.989Z,9.60
2023-04-29T10:25:31.132Z,7.80
2023-04-29T10:27:58.605Z,12.37
2023-04-29T10:30:26.071Z,12.40
2023-04-29T10:32:53.526Z,8.90
2023-04-29T10:35:24.544Z,9.27
2023-04-29T10:37:51.865Z,11.23
2023-04-29T10:40:30.805Z,10.57
2023-04-29T10:42:58.938Z,11.77
2023-04-29T10:45:31.821Z,15.33
2023-04-29T10:48:10.558Z,10.27
2023-04-29T10:51:00.713Z,13.37
2023-04-29T10:53:28.216Z,10.63
2023-04-29T10:56:06.277Z,9.17
2023-04-29T10:58:46.165Z,9.27
2023-04-29T11:01:17.552Z,11.23
2023-04-29T11:04:00.769Z,12.97
2023-04-29T11:06:36.555Z,12.83
2023-04-29T11:09:30.679Z,9.52
2023-04-29T11:12:05.510Z,9.97
2023-04-29T11:14:36.631Z,9.33
2023-04-29T11:17:16.869Z,9.47
2023-04-29T11:19:46.224Z,9.57
2023-04-29T11:22:27.669Z,13.10
2023-04-29T11:25:07.382Z,9.50
2023-04-29T11:27:35.983Z,9.73
2023-04-29T11:30:05.061Z,9.93
2023-04-29T11:32:40.569Z,11.43
2023-04-29T11:35:12.836Z,13.45
2023-04-29T11:37:41.191Z,10.70
2023-04-29T11:40:10.027Z,11.98
2023-04-29T11:42:41.434Z,9.73
2023-04-29T11:45:10.727Z,13.47
2023-04-29T11:47:38.476Z,12.07
2023-04-29T11:50:11.112Z,11.68
2023-04-29T11:52:38.984Z,10.77
2023-04-29T11:55:09.314Z,11.48
2023-04-29T11:57:36.691Z,11.02
2023-04-29T12:00:07.995Z,11.10
2023-04-29T12:02:37.096Z,12.00
2023-04-29T12:05:09.419Z,9.30
2023-04-29T12:07:37.699Z,8.73
2023-04-29T12:10:09.320Z,11.45
2023-04-29T12:12:36.436Z,10.23
2023-04-29T12:15:06.913Z,12.70
2023-04-29T12:17:35.024Z,9.23
2023-04-29T12:20:02.466Z,7.68
2023-04-29T12:22:32.918Z,7.32
2023-04-29T12:25:00.799Z,9.27
2023-04-29T12:27:28.798Z,8.70
2023-04-29T12:29:57.722Z,10.40
2023-04-29T12:32:25.812Z,7.70
2023-04-29T12:34:53.881Z,9.48
2023-04-29T12:37:26.821Z,11.15
2023-04-29T12:39:55.806Z,10.27
2023-04-29T12:42:23.670Z,7.38
2023-04-29T12:44:51.567Z,8.18
2023-04-29T12:47:21.695Z,9.20
2023-04-29T12:49:50.210Z,8.23
2023-04-29T12:52:17.614Z,8.23
2023-04-29T12:54:45.114Z,7.30
2023-04-29T12:57:12.909Z,9.20
2023-04-29T12:59:43.311Z,8.77
2023-04-29T13:02:10.929Z,8.13
2023-04-29T13:04:40.109Z,9.80
2023-04-29T13:07:07.786Z,8.10
2023-04-29T13:09:37.856Z,8.25
2023-04-29T13:12:08.206Z,10.48
2023-04-29T13:14:35.710Z,13.77
2023-04-29T13:17:04.189Z,11.90
2023-04-29T13:19:48.217Z,11.48
2023-04-29T13:22:19.103Z,8.07
2023-04-29T13:24:46.978Z,8.35
2023-04-29T13:27:14.922Z,9.65
2023-04-29T13:29:42.779Z,8.43
2023-04-29T13:32:10.609Z,6.88
2023-04-29T13:34:38.606Z,9.10
2023-04-29T13:37:06.416Z,11.60
2023-04-29T13:39:37.903Z,13.23
2023-04-29T13:42:10.370Z,12.07
2023-04-29T13:44:51.602Z,10.35
2023-04-29T13:47:25.183Z,8.55
2023-04-29T13:50:32.940Z,9.73
2023-04-29T13:55:49.474Z,8.68
2023-04-29T13:58:41.053Z,7.07
2023-04-29T14:01:11.300Z,7.15
2023-04-29T14:03:36.045Z,8.60
2023-04-29T14:06:07.597Z,8.40
2023-04-29T14:08:35.510Z,7.65
2023-04-29T14:11:03.441Z,7.97
2023-04-29T14:13:31.424Z,11.50
2023-04-29T14:15:59.921Z,12.20
2023-04-29T14:18:27.580Z,9.98
2023-04-29T14:20:55.343Z,8.80
2023-04-29T14:23:22.858Z,8.32
2023-04-29T14:25:50.309Z,9.63
2023-04-29T14:28:18.419Z,10.18
2023-04-29T14:30:47.093Z,6.18
2023-04-29T14:33:18.214Z,9.35
2023-04-29T14:35:46.315Z,9.00
2023-04-29T14:38:13.687Z,7.95
2023-04-29T14:40:41.543Z,6.80
2023-04-29T14:43:09.457Z,7.75
2023-04-29T14:45:37.734Z,10.48
2023-04-29T14:48:05.862Z,17.75
2023-04-29T14:50:33.789Z,11.35
2023-04-29T14:53:01.571Z,8.70
2023-04-29T14:55:30.853Z,5.95
2023-04-29T14:57:59.314Z,14.95
2023-04-29T15:00:32.842Z,12.23
2023-04-29T15:03:03.599Z,9.88
2023-04-29T15:05:31.170Z,9.30
2023-04-29T15:08:00.304Z,8.43
2023-04-29T15:10:28.347Z,9.57
2023-04-29T15:12:56.034Z,9.27
2023-04-29T15:15:23.461Z,10.80
2023-04-29T15:17:54.274Z,9.65
2023-04-29T15:20:21.752Z,7.95
2023-04-29T15:22:49.684Z,11.02
2023-04-29T15:25:17.536Z,9.70
2023-04-29T15:27:45.649Z,9.73
2023-04-29T15:30:15.618Z,9.13
2023-04-29T15:32:43.168Z,10.05
2023-04-29T15:35:10.381Z,8.90
2023-04-29T15:37:38.339Z,7.20
2023-04-29T15:40:09.249Z,9.98
2023-04-29T15:42:37.199Z,10.35
2023-04-29T15:45:09.756Z,9.45
2023-04-29T15:47:37.714Z,9.82
2023-04-29T15:50:07.632Z,10.00
2023-04-29T15:52:35.292Z,9.90
2023-04-29T15:55:03.148Z,9.93
2023-04-29T15:57:30.920Z,7.90
2023-04-29T15:59:58.795Z,9.10
2023-04-29T16:02:26.106Z,10.15
2023-04-29T16:04:54.080Z,10.18
2023-04-29T16:07:21.992Z,8.07
2023-04-29T16:09:49.802Z,12.50
2023-04-29T16:12:18.325Z,10.70
2023-04-29T16:14:45.992Z,9.75
2023-04-29T16:17:13.981Z,7.63
2023-04-29T16:19:41.910Z,9.27
2023-04-29T16:22:09.762Z,8.93
2023-04-29T16:24:37.612Z,9.53
2023-04-29T16:27:05.540Z,7.37
2023-04-29T16:29:32.638Z,8.20
2023-04-29T16:32:00.252Z,9.57
2023-04-29T16:34:28.214Z,11.10
2023-04-29T16:36:56.391Z,10.80
2023-04-29T16:39:24.824Z,13.10
2023-04-29T16:41:52.615Z,9.37
2023-04-29T16:44:20.347Z,9.93
2023-04-29T16:46:47.503Z,12.27
2023-04-29T16:49:18.003Z,9.70
2023-04-29T16:51:45.970Z,8.73
2023-04-29T16:54:13.889Z,8.93
2023-04-29T16:56:41.723Z,8.70
2023-04-29T16:59:11.307Z,9.97
2023-04-29T17:01:39.088Z,9.73
2023-04-29T17:04:08.914Z,13.33
2023-04-29T17:06:38.291Z,13.53
2023-04-29T17:09:05.089Z,12.67
2023-04-29T17:11:33.333Z,12.70
2023-04-29T17:14:00.905Z,11.27
2023-04-29T17:16:30.095Z,13.03
2023-04-29T17:18:58.010Z,15.10
2023-04-29T17:21:26.089Z,18.60
2023-04-29T17:23:53.702Z,15.43
2023-04-29T17:26:21.644Z,21.57
2023-04-29T17:28:49.635Z,26.93
2023-04-29T17:31:17.176Z,22.77
2023-04-29T17:33:54.881Z,17.20
2023-04-29T17:36:24.979Z,16.93
2023-04-29T17:38:53.307Z,12.10
2023-04-29T17:41:21.147Z,12.63
2023-04-29T17:43:48.691Z,11.17
2023-04-29T17:46:16.621Z,12.10
2023-04-29T17:48:45.337Z,14.77
2023-04-29T17:51:13.293Z,10.60
2023-04-29T17:53:40.744Z,12.17
2023-04-29T17:56:08.680Z,12.57
2023-04-29T17:58:36.160Z,12.90
2023-04-29T18:01:26.512Z,12.00
2023-04-29T18:03:54.355Z,11.27
2023-04-29T18:06:22.385Z,13.73
2023-04-29T18:08:50.293Z,8.97
2023-04-29T18:11:18.162Z,11.73
2023-04-29T18:13:46.918Z,12.30
2023-04-29T18:16:14.840Z,10.30
2023-04-29T18:18:42.381Z,13.27
2023-04-29T18:21:10.324Z,15.30
2023-04-29T18:23:39.114Z,15.47
2023-04-29T18:26:06.575Z,14.40
2023-04-29T18:28:34.090Z,12.13
2023-04-29T18:31:01.474Z,11.60
2023-04-29T18:33:30.965Z,13.60
2023-04-29T18:35:58.520Z,13.20
2023-04-29T18:38:26.091Z,11.70
2023-04-29T18:40:54.519Z,13.27
2023-04-29T18:43:24.700Z,11.30
2023-04-29T18:45:52.449Z,16.90
2023-04-29T18:48:20.583Z,11.13
2023-04-29T18:50:48.160Z,12.67
2023-04-29T18:53:16.117Z,11.60
2023-04-29T18:55:44.327Z,16.00
2023-04-29T18:58:12.171Z,14.63
2023-04-29T19:00:39.956Z,15.50
2023-04-29T19:03:07.452Z,18.73
2023-04-29T19:05:35.223Z,11.70
2023-04-29T19:08:02.779Z,10.40
2023-04-29T19:10:30.621Z,13.47
2023-04-29T19:12:58.449Z,12.33
2023-04-29T19:15:28.134Z,12.67
2023-04-29T19:17:58.499Z,13.50
2023-04-29T19:20:25.864Z,14.03
2023-04-29T19:22:53.486Z,12.17
2023-04-29T19:25:22.106Z,17.33
2023-04-29T19:27:51.128Z,13.80
2023-04-29T19:30:19.204Z,12.67
2023-04-29T19:32:47.024Z,11.77
2023-04-29T19:35:14.620Z,15.87
2023-04-29T19:37:42.679Z,13.80
2023-04-29T19:40:11.755Z,14.63
2023-04-29T19:42:40.489Z,14.70
2023-04-29T19:45:12.566Z,12.20
2023-04-29T19:47:40.695Z,12.63
2023-04-29T19:50:09.671Z,13.47
2023-04-29T19:52:37.356Z,14.47
2023-04-29T19:55:05.922Z,12.10
2023-04-29T19:57:34.165Z,17.07
2023-04-29T20:00:02.290Z,13.63
2023-04-29T20:02:30.601Z,14.00
2023-04-29T20:04:58.584Z,13.47
2023-04-29T20:07:26.589Z,17.03
2023-04-29T20:09:54.569Z,16.37
2023-04-29T20:12:22.559Z,17.90
2023-04-29T20:14:50.364Z,15.23
2023-04-29T20:17:18.295Z,18.70
2023-04-29T20:19:45.941Z,15.00
2023-04-29T20:22:13.519Z,18.67
2023-04-29T20:24:41.672Z,18.93
2023-04-29T20:27:09.769Z,21.30
2023-04-29T20:29:37.358Z,22.73
2023-04-29T20:32:06.164Z,23.57
2023-04-29T20:34:34.117Z,20.20
2023-04-29T20:37:06.971Z,19.93
2023-04-29T20:39:34.558Z,19.37
2023-04-29T20:42:03.148Z,14.77
2023-04-29T20:44:30.972Z,17.93
2023-04-29T20:46:58.489Z,21.60
2023-04-29T20:49:26.383Z,16.53
2023-04-29T20:51:53.941Z,18.63
2023-04-29T20:54:21.595Z,19.30
2023-04-29T20:56:49.474Z,17.27
2023-04-29T20:59:17.707Z,16.33
2023-04-29T21:01:46.423Z,19.27
2023-04-29T21:04:14.455Z,16.63
2023-04-29T21:06:45.282Z,18.77
2023-04-29T21:09:12.740Z,20.97
2023-04-29T21:11:40.726Z,19.53
2023-04-29T21:14:08.591Z,19.83
2023-04-29T21:16:36.143Z,19.70
2023-04-29T21:19:04.034Z,20.23
2023-04-29T21:21:31.818Z,16.07
2023-04-29T21:23:59.753Z,21.83
2023-04-29T21:26:27.675Z,22.57
2023-04-29T21:28:55.718Z,26.70
2023-04-29T21:31:23.698Z,20.50
2023-04-29T21:33:56.557Z,18.90
2023-04-29T21:36:24.562Z,18.10
2023-04-29T21:38:54.312Z,20.63
2023-04-29T21:41:28.879Z,20.07
2023-04-29T21:43:58.272Z,17.83
2023-04-29T21:46:27.789Z,20.40
2023-04-29T21:48:56.333Z,19.33
2023-04-29T21:51:23.361Z,19.60
2023-04-29T21:53:51.313Z,16.80
2023-04-29T21:56:18.991Z,18.23
2023-04-29T21:58:46.539Z,21.73
2023-04-29T22:01:27.220Z,18.27
2023-04-29T22:03:57.300Z,16.77
2023-04-29T22:06:27.575Z,18.20
2023-04-29T22:08:55.032Z,21.23
2023-04-29T22:11:22.641Z,17.03
2023-04-29T22:13:50.378Z,21.20
2023-04-29T22:16:19.165Z,19.30
2023-04-29T22:18:46.352Z,17.87
2023-04-29T22:21:13.920Z,16.43
2023-04-29T22:23:44.026Z,17.33
2023-04-29T22:26:11.917Z,17.63
2023-04-29T22:28:39.545Z,19.20
2023-04-29T22:31:07.021Z,14.83
2023-04-29T22:33:35.180Z,17.87
2023-04-29T22:36:05.819Z,16.47
2023-04-29T22:38:33.297Z,15.80
2023-04-29T22:41:01.831Z,14.67
2023-04-29T22:43:30.008Z,18.67
2023-04-29T22:45:57.555Z,16.23
2023-04-29T22:48:27.596Z,17.63
2023-04-29T22:50:55.290Z,19.67
2023-04-29T22:53:22.531Z,19.67
2023-04-29T22:55:53.650Z,19.23
2023-04-29T22:58:21.828Z,14.27
2023-04-29T23:00:56.957Z,17.20
2023-04-29T23:03:24.212Z,16.83
2023-04-29T23:05:51.788Z,14.13
2023-04-29T23:08:19.387Z,18.23
2023-04-29T23:10:49.717Z,18.00
2023-04-29T23:13:17.260Z,18.80
2023-04-29T23:15:45.393Z,13.40
2023-04-29T23:18:13.065Z,15.73
2023-04-29T23:20:40.972Z,17.43
2023-04-29T23:23:08.734Z,14.97
2023-04-29T23:25:36.566Z,17.50
2023-04-29T23:28:04.824Z,18.30
2023-04-29T23:30:33.006Z,19.17
2023-04-29T23:33:00.548Z,15.57
2023-04-29T23:35:28.479Z,17.77
2023-04-29T23:37:56.355Z,17.63
2023-04-29T23:40:24.034Z,20.00
2023-04-29T23:42:52.108Z,20.17
2023-04-29T23:45:19.941Z,18.27
2023-04-29T23:47:48.203Z,19.90
2023-04-29T23:50:15.781Z,20.30
2023-04-29T23:52:43.593Z,18.57
2023-04-29T23:55:12.193Z,19.53
2023-04-29T23:57:40.091Z,16.90
